Kenneth Simons

Recruteur en chef - Heerenveen
3 Déc 2028
Dimanche
Processus

Personnalité

Adaptabilité (3) Ambition (5) Controverse (16) Loyauté (9) Pression (5) Professionnalisme (9) Sportivité (7) Tempérament (11)

Profil

Style d'entraînement Démocratique
Diplôme Continental Pro
Détermination 4
Gestion des joueurs 9
Motivation 12
Discipline 9
Satisfaction professionnelle
69%
Fatigue
0%
Rôle Recruteur en chef
Salaire 37.8K p/s
Contrat 14.03.2030

Performance

Comportement Bon
Efficacité de l'entraînement
39%
Développement des joueurs
30%
Prévention des blessures
25%
Mise en place tactique
60%

Événements récents

A participé à une réunion de recrutement maintenant
A participé à une réunion de recrutement maintenant
A recommandé une cible de transfert maintenant
A recommandé une cible de transfert maintenant
A recommandé une cible de transfert maintenant
A recommandé une cible de transfert 7j
A recommandé une cible de transfert 7j
A recommandé une cible de transfert 7j

Suivi en cours

110
Joueur Club Statut Capacité Confiance Observé Dernière observation Dernier vote
Deveron Fonville NEC Actif 125 / 120 62% 1 07.08.2028 Approuver
Illaijh de Ruijter ADO Den Haag Actif 110 / 124 62% 1 03.07.2028 Approuver
Thijs Kraaijeveld USM Alger Actif 133 / 124 40% 1 31.05.2028 -
Konta Ismaily Actif 88 / 105 40% 1 31.05.2028 -
Gilberto Mora Guadalajara Actif 123 / 141 40% 3 02.05.2028 -
Ryan McAidoo Oldham Athletic Actif 118 / 134 40% 2 30.04.2028 -
Ryunosuke Sato Eibar Actif 140 / 138 40% 1 30.04.2028 -
Kerim Alajbegović Modena Actif 131 / 141 40% 2 29.04.2028 -
Eli Junior Kroupi Bournemouth Actif 155 / 146 40% 3 27.04.2028 -
Trey Nyoni Rotherham United Actif 129 / 146 40% 2 27.04.2028 -
Luca Williams-Barnett Walsall Actif 127 / 124 40% 2 25.04.2028 -
Luca Meirelles Kudrivka Actif 127 / 137 40% 1 25.04.2028 -
Babis Kostoulas Oxford United Actif 140 / 152 40% 2 24.04.2028 -
Mateus Mané Burnley Actif 136 / 152 40% 3 24.04.2028 -
Honest Ahanor Atalanta Actif 128 / 143 40% 3 23.04.2028 -
Aarón Ochoa Málaga Actif 127 / 126 40% 2 23.04.2028 -
Ryan Kavuma-McQueen Accrington Stanley Actif 122 / 134 40% 4 22.04.2028 -
Shea Lacey Crystal Palace Actif 129 / 139 40% 1 18.04.2028 -
Pape Diong Westerlo Actif 119 / 123 40% 2 11.04.2028 -
Sindre Walle Egeli Udinese Actif 142 / 148 40% 2 06.04.2028 -
Ibrahim Fullah Charlton Athletic Actif 131 / 124 40% 1 06.04.2028 -
Ben Broggio Mansfield Town Actif 104 / 114 40% 2 04.04.2028 -
Wiebe Kooistra Cambuur Actif 106 / 107 40% 1 04.04.2028 -
Siyabonga Mabena Bidvest Wits Actif 107 / 120 40% 2 01.04.2028 -
Christos Mouzakitis Hull City Actif 140 / 138 40% 1 01.04.2028 -
Josh Nichols Oldham Athletic Actif 124 / 128 40% 3 31.03.2028 -
Gabriel Mec Feirense Actif 120 / 128 40% 1 28.03.2028 -
André Miranda Porto Actif 112 / 118 40% 1 26.03.2028 -
Oskar Pietuszewski Estrela da Amadora Actif 121 / 129 40% 1 23.03.2028 -
Oscar Schwartau Norwich City Actif 129 / 132 40% 1 21.03.2028 -
Dânio Djassi Portimonense Actif 120 / 123 40% 1 21.03.2028 -
Henrique Carmo Sochi Actif 124 / 138 40% 3 15.03.2028 -
Hugo Camberos Dorados Actif 134 / 127 40% 2 08.03.2028 -
Amine Boukamir Charleroi Actif 98 / 107 40% 1 08.03.2028 -
Jorge Salinas Racing Santander Actif 124 / 133 40% 1 06.03.2028 -
Mao Hosoya Santos Actif 134 / 135 67% 1 01.01.2028 Approuver
Facundo Torres Millonarios Actif 134 / 134 67% 1 01.01.2028 Approuver
Felipe Faúndez O'Higgins Actif 87 / 113 40% 1 31.12.2027 -
Daniel Idoko Ikorodu City Actif 94 / 87 40% 1 31.12.2027 -
Calvin Carrilho AZ Actif 95 / 113 58% 1 23.08.2027 -
Pedro de la Vega Columbus Crew Actif 133 / 134 66% 1 01.06.2027 Approuver
Georginio Rutter Brighton Actif 144 / 150 40% 4 18.01.2027 -
Roberto Fernández Braga Actif 133 / 144 40% 7 30.12.2026 Observer
Elijah Adebayo Luton Town Actif 120 / 120 40% 1 30.12.2026 -
Ismaïla Sarr Crystal Palace Actif 142 / 152 40% 3 27.12.2026 -
Fran Navarro Braga Actif 122 / 123 40% 1 26.12.2026 -
Mexx Meerdink AZ Actif 139 / 137 40% 4 24.12.2026 -
Ismael Díaz Leon Actif 112 / 119 40% 2 21.12.2026 -
Sorriso Famalicao Actif 136 / 130 40% 1 20.12.2026 -
Alexis Vega Feyenoord Actif 136 / 147 40% 2 19.12.2026 -
Youri Tielemans Mouscron Actif 108 / 114 40% 2 17.12.2026 -
Bongani Khune SuperSport United Actif 128 / 124 40% 4 17.12.2026 -
Nicolò Tresoldi Club Brugge Actif 138 / 134 40% 4 15.12.2026 -
Justo Giani Umraniyespor Actif 125 / 119 40% 1 14.12.2026 -
Chukwubuikem Ikwuemesi OH Leuven Actif 120 / 113 40% 2 13.12.2026 -
Rafael Navarro Famalicao Actif 131 / 125 40% 1 13.12.2026 -
Rafiu Durosinmi Racing Genk Actif 120 / 135 40% 3 12.12.2026 -
Malick Mbaye Zulte Waregem Actif 123 / 116 40% 1 11.12.2026 -
Luis Suárez Sporting CP Actif 154 / 157 40% 1 07.12.2026 -
Giacomo Raspadori Atalanta Actif 149 / 147 40% 1 06.12.2026 -
Thibaud Verlinden OH Leuven Actif 118 / 117 40% 1 05.12.2026 -
Ilay Camara Anderlecht Actif 122 / 129 40% 1 05.12.2026 -
Kevin Fulham Actif 149 / 145 40% 1 01.12.2026 -
Thierry Ambrose KV Kortrijk Actif 118 / 121 40% 3 26.11.2026 -
Hugo Cuypers Monterrey Actif 128 / 132 40% 3 25.11.2026 -
Aimé Omgba KAA Gent Actif 115 / 123 40% 1 24.11.2026 -
Yoann Cathline Utrecht Actif 131 / 132 40% 1 24.11.2026 -
Dennis Ayensa Standard Liege Actif 114 / 111 40% 2 21.11.2026 -
Zian Flemming Ipswich Town Actif 124 / 132 40% 1 20.11.2026 -
Leonardo Lopes KAA Gent Actif 128 / 113 40% 1 20.11.2026 -
Tristan Degreef Anderlecht Actif 114 / 125 40% 1 17.11.2026 -
Sylvester Jasper Standard Liege Actif 121 / 124 40% 2 11.11.2026 -
Julian Herrera Cortulua Actif 129 / 114 40% 3 07.11.2026 -
Yousef Salech Cardiff City Actif 125 / 128 40% 1 07.11.2026 -
Kyriani Sabbe Club Brugge Actif 119 / 129 40% 1 07.11.2026 -
Kyle Wootton Stockport County Actif 120 / 123 40% 1 03.11.2026 -
Sem Steijn Feyenoord Actif 151 / 150 40% 2 01.11.2026 -
Facundo Suárez Instituto Actif 126 / 120 40% 1 01.11.2026 -
Yaimar Medina Racing Genk Actif 130 / 122 40% 1 01.11.2026 -
Abdelkahar Kadri KAA Gent Actif 135 / 129 40% 1 31.10.2026 -
Morgan Guilavogui Real Salt Lake Actif 114 / 136 40% 3 27.10.2026 -
Aurélien Scheidler Charleroi Actif 126 / 116 40% 4 27.10.2026 -
Jan Virgili Club Brugge Actif 123 / 134 40% 1 25.10.2026 -
Ilyes Najim Waasland-Beveren Actif 112 / 115 40% 1 25.10.2026 -
Taiga Hata Sint-Truiden Actif 111 / 126 40% 1 19.10.2026 -
Antoine Colassin Charleroi Actif 115 / 123 40% 2 13.10.2026 -
Nayel Mehssatou KV Kortrijk Actif 104 / 119 40% 1 13.10.2026 -
Alexey Miranchuk Atlanta United FC Actif 135 / 143 40% 1 10.10.2026 -
Tommy St. Jago KV Mechelen Actif 129 / 123 40% 1 06.10.2026 -
Maksim Kireev KV Mechelen Actif 121 / 128 40% 1 06.10.2026 -
Alexis Cuello San Lorenzo Actif 133 / 132 40% 1 01.10.2026 -
Alejandro Piedrahita Deportivo Pereira Actif 123 / 116 40% 1 30.09.2026 -
Nicolás Ibáñez Cruz Azul Actif 142 / 133 40% 1 30.09.2026 -
Tadeo Allende Inter Miami CF Actif 121 / 126 40% 1 29.09.2026 -
Jesus Ferreira Seattle Sounders Actif 145 / 139 40% 1 23.09.2026 -
Ramiro Ruiz Rodríguez Atlético Tucumán Actif 111 / 121 40% 1 20.09.2026 -
Nico López Platense Actif 119 / 124 40% 1 20.09.2026 -
Juan Cruz de los Santos Nacional Actif 138 / 128 40% 1 19.09.2026 -
Victor Olatunji Real Salt Lake Actif 116 / 123 40% 1 16.09.2026 -
Enzo Copetti Rosario Central Actif 139 / 117 40% 1 16.09.2026 -
Wessam Abou Ali Columbus Crew Actif 134 / 122 40% 2 14.09.2026 -
João Klauss LA Galaxy Actif 125 / 130 40% 1 13.09.2026 -
Cheikh Sabaly Vancouver Whitecaps Actif 126 / 123 40% 1 12.09.2026 -
Benito Raman KV Mechelen Actif 121 / 118 40% 1 10.09.2026 -
Jorge Obregón Deportivo Pasto Actif 115 / 122 40% 1 07.09.2026 -
Germán Berterame Inter Miami CF Actif 135 / 134 40% 1 03.09.2026 -
Juninho Pumas UNAM Actif 119 / 117 40% 1 02.09.2026 -
Melih Junuzov Utrecht Actif 93 / 104 58% 1 24.08.2026 -
Martín Ojeda Orlando City Actif 134 / 141 40% 1 24.08.2026 -
Björn Menzo Utrecht Actif 105 / 111 58% 1 10.08.2026 -